createdAt,value
2023-04-14T00:00:58.417Z,8.57
2023-04-14T00:04:00.138Z,8.55
2023-04-14T00:07:01.865Z,8.54
2023-04-14T00:10:03.667Z,8.55
2023-04-14T00:13:05.315Z,8.55
2023-04-14T00:16:08.224Z,8.56
2023-04-14T00:19:09.838Z,8.56
2023-04-14T00:22:11.469Z,8.56
2023-04-14T00:25:13.170Z,8.57
2023-04-14T00:28:14.782Z,8.55
2023-04-14T00:31:19.939Z,8.54
2023-04-14T00:34:21.508Z,8.53
2023-04-14T00:37:24.240Z,8.51
2023-04-14T00:40:27.067Z,8.48
2023-04-14T00:43:28.659Z,8.49
2023-04-14T00:46:30.335Z,8.51
2023-04-14T00:49:32.149Z,8.52
2023-04-14T00:52:33.789Z,8.55
2023-04-14T00:55:36.378Z,8.59
2023-04-14T00:58:38.647Z,8.62
2023-04-14T01:01:41.389Z,8.66
2023-04-14T01:04:53.645Z,8.71
2023-04-14T01:07:56.549Z,8.75
2023-04-14T01:11:04.608Z,8.81
2023-04-14T01:14:21.729Z,8.85
2023-04-14T01:17:45.153Z,8.88
2023-04-14T01:20:52.121Z,8.92
2023-04-14T01:23:54.132Z,8.95
2023-04-14T01:27:11.737Z,8.95
2023-04-14T01:30:31.636Z,8.94
2023-04-14T01:33:37.013Z,8.95
2023-04-14T01:36:44.062Z,8.97
2023-04-14T01:39:52.068Z,8.97
2023-04-14T01:42:59.943Z,8.97
2023-04-14T01:46:05.653Z,8.94
2023-04-14T01:49:07.766Z,8.93
2023-04-14T01:52:11.648Z,8.94
2023-04-14T01:55:17.033Z,8.97
2023-04-14T01:58:19.762Z,9.00
2023-04-14T02:01:21.666Z,9.04
2023-04-14T02:04:26.180Z,9.07
2023-04-14T02:07:28.467Z,9.08
2023-04-14T02:10:30.524Z,9.08
2023-04-14T02:13:32.275Z,9.08
2023-04-14T02:16:34.257Z,9.11
2023-04-14T02:19:37.103Z,9.12
2023-04-14T02:22:38.934Z,9.11
2023-04-14T02:25:43.099Z,9.10
2023-04-14T02:28:57.493Z,9.09
2023-04-14T02:32:07.145Z,9.06
2023-04-14T02:35:12.372Z,9.07
2023-04-14T02:38:19.253Z,9.01
2023-04-14T02:41:30.079Z,8.95
2023-04-14T02:44:39.162Z,8.91
2023-04-14T02:47:45.148Z,8.89
2023-04-14T02:50:50.013Z,8.90
2023-04-14T02:53:53.731Z,8.90
2023-04-14T02:57:04.181Z,8.92
2023-04-14T03:00:07.293Z,8.94
2023-04-14T03:03:13.809Z,8.94
2023-04-14T03:06:16.245Z,8.95
2023-04-14T03:09:18.643Z,8.98
2023-04-14T03:12:21.576Z,9.00
2023-04-14T03:15:25.014Z,9.01
2023-04-14T03:18:27.577Z,9.00
2023-04-14T03:21:30.886Z,8.99
2023-04-14T03:24:34.915Z,9.01
2023-04-14T03:27:36.953Z,9.03
2023-04-14T03:30:43.175Z,9.05
2023-04-14T03:33:47.332Z,9.06
2023-04-14T03:36:54.584Z,9.07
2023-04-14T03:40:00.548Z,9.07
2023-04-14T03:43:04.096Z,9.06
2023-04-14T03:46:07.735Z,9.04
2023-04-14T03:49:21.310Z,9.03
2023-04-14T03:52:24.195Z,9.01
2023-04-14T03:55:27.819Z,8.99
2023-04-14T03:58:30.187Z,8.98
2023-04-14T04:01:32.860Z,8.97
2023-04-14T04:04:36.814Z,8.94
2023-04-14T04:07:38.848Z,8.90
2023-04-14T04:10:42.611Z,8.88
2023-04-14T04:13:45.664Z,8.87
2023-04-14T04:16:50.952Z,8.85
2023-04-14T04:19:54.860Z,8.85
2023-04-14T04:22:58.091Z,8.88
2023-04-14T04:25:59.936Z,8.89
2023-04-14T04:29:07.185Z,8.87
2023-04-14T04:32:09.184Z,8.87
2023-04-14T04:35:11.551Z,8.88
2023-04-14T04:38:14.756Z,8.89
2023-04-14T04:41:29.017Z,8.89
2023-04-14T04:44:33.233Z,8.90
2023-04-14T04:47:35.318Z,8.90
2023-04-14T04:50:36.957Z,8.88
2023-04-14T04:53:38.598Z,8.89
2023-04-14T04:56:40.304Z,8.91
2023-04-14T04:59:41.952Z,8.94
2023-04-14T05:02:43.601Z,8.96
2023-04-14T05:05:45.482Z,8.97
2023-04-14T05:08:47.766Z,9.00
2023-04-14T05:11:49.400Z,9.03
2023-04-14T05:14:51.666Z,9.05
2023-04-14T05:17:53.389Z,9.07
2023-04-14T05:20:55.028Z,9.09
2023-04-14T05:23:56.694Z,9.12
2023-04-14T05:30:07.736Z,9.16
2023-04-14T05:33:09.410Z,9.17
2023-04-14T05:36:11.316Z,9.18
2023-04-14T05:39:13.676Z,9.19
2023-04-14T05:42:15.599Z,9.21
2023-04-14T05:45:17.219Z,9.22
2023-04-14T05:48:18.878Z,9.23
2023-04-14T05:51:20.566Z,9.27
2023-04-14T05:54:22.304Z,9.31
2023-04-14T05:57:23.891Z,9.36
2023-04-14T06:00:25.732Z,9.40
2023-04-14T06:03:27.604Z,9.46
2023-04-14T06:06:29.494Z,9.50
2023-04-14T06:09:31.676Z,9.58
2023-04-14T06:12:33.253Z,9.63
2023-04-14T06:15:34.857Z,9.68
2023-04-14T06:18:36.496Z,9.73
2023-04-14T06:21:38.140Z,9.77
2023-04-14T06:24:40.837Z,9.78
2023-04-14T06:27:42.472Z,9.81
2023-04-14T06:30:44.116Z,9.86
2023-04-14T06:33:45.926Z,9.93
2023-04-14T06:36:48.516Z,10.00
2023-04-14T06:39:50.175Z,10.08
2023-04-14T06:42:51.847Z,10.17
2023-04-14T06:45:53.523Z,10.20
2023-04-14T06:48:55.223Z,10.25
2023-04-14T06:51:56.808Z,10.30
2023-04-14T06:54:58.469Z,10.32
2023-04-14T06:58:00.174Z,10.35
2023-04-14T07:01:03.214Z,10.39
2023-04-14T07:04:07.595Z,10.48
2023-04-14T07:07:09.921Z,10.55
2023-04-14T07:10:12.735Z,10.64
2023-04-14T07:13:14.307Z,10.73
2023-04-14T07:16:15.975Z,10.84
2023-04-14T07:19:18.087Z,10.98
2023-04-14T07:22:19.648Z,11.08
2023-04-14T07:25:21.868Z,11.18
2023-04-14T07:28:24.617Z,11.29
2023-04-14T07:31:26.753Z,11.37
2023-04-14T07:34:28.460Z,11.44
2023-04-14T07:37:30.129Z,11.54
2023-04-14T07:40:31.775Z,11.63
2023-04-14T07:43:36.916Z,11.70
2023-04-14T07:46:38.575Z,11.81
2023-04-14T07:49:40.138Z,11.88
2023-04-14T07:52:41.747Z,11.93
2023-04-14T07:55:43.422Z,11.95
2023-04-14T07:58:45.206Z,12.00
2023-04-14T08:01:48.115Z,12.07
2023-04-14T08:07:51.966Z,12.26
2023-04-14T08:10:53.784Z,12.39
2023-04-14T08:13:55.363Z,12.54
2023-04-14T08:16:56.990Z,12.70
2023-04-14T08:19:58.573Z,12.84
2023-04-14T08:23:00.222Z,13.00
2023-04-14T08:26:01.865Z,13.14
2023-04-14T08:29:04.554Z,13.28
2023-04-14T08:32:06.291Z,13.48
2023-04-14T08:35:38.624Z,13.67
2023-04-14T08:38:31.129Z,13.88
2023-04-14T08:41:38.694Z,14.03
2023-04-14T08:44:40.847Z,14.14
2023-04-14T08:47:43.570Z,14.24
2023-04-14T08:50:56.815Z,14.21
2023-04-14T08:53:59.128Z,14.17
2023-04-14T08:57:01.136Z,14.20
2023-04-14T09:00:05.024Z,14.17
2023-04-14T09:03:07.482Z,14.08
2023-04-14T09:06:09.699Z,14.01
2023-04-14T09:09:11.447Z,13.92
2023-04-14T09:12:13.757Z,13.78
2023-04-14T09:15:16.987Z,13.71
2023-04-14T09:18:18.725Z,13.66
2023-04-14T09:21:28.964Z,13.64
2023-04-14T09:24:42.604Z,13.62
2023-04-14T09:27:44.388Z,13.62
2023-04-14T09:30:46.156Z,13.61
2023-04-14T09:33:50.509Z,13.65
2023-04-14T09:37:10.247Z,13.66
2023-04-14T09:40:29.484Z,13.67
2023-04-14T09:43:31.128Z,13.66
2023-04-14T09:46:33.001Z,13.68
2023-04-14T09:49:34.723Z,13.75
2023-04-14T09:52:42.621Z,13.81
2023-04-14T09:55:45.599Z,13.87
2023-04-14T09:58:49.076Z,13.93
2023-04-14T10:01:51.147Z,13.96
2023-04-14T10:05:06.588Z,13.99
2023-04-14T10:08:08.282Z,14.06
2023-04-14T10:11:23.290Z,14.09
2023-04-14T10:14:24.946Z,14.20
2023-04-14T10:17:29.475Z,14.34
2023-04-14T10:20:32.570Z,14.46
2023-04-14T10:23:36.784Z,14.54
2023-04-14T10:26:38.406Z,14.60
2023-04-14T10:29:42.151Z,14.64
2023-04-14T10:32:44.083Z,14.67
2023-04-14T10:35:48.473Z,14.70
2023-04-14T10:38:50.298Z,14.72
2023-04-14T10:41:52.808Z,14.74
2023-04-14T10:45:07.164Z,14.80
2023-04-14T10:48:09.544Z,14.82
2023-04-14T10:51:11.878Z,14.82
2023-04-14T10:54:20.404Z,14.90
2023-04-14T10:57:26.768Z,15.00
2023-04-14T11:00:30.159Z,15.06
2023-04-14T11:03:34.842Z,15.10
2023-04-14T11:06:46.164Z,15.15
2023-04-14T11:09:49.117Z,15.24
2023-04-14T11:12:58.088Z,15.34
2023-04-14T11:16:08.201Z,15.42
2023-04-14T11:19:16.197Z,15.46
2023-04-14T11:22:37.066Z,15.59
2023-04-14T11:25:39.618Z,15.75
2023-04-14T11:28:42.823Z,15.88
2023-04-14T11:31:44.508Z,15.95
2023-04-14T11:34:46.071Z,16.03
2023-04-14T11:37:47.796Z,16.15
2023-04-14T11:40:50.485Z,16.35
2023-04-14T11:43:52.104Z,16.49
2023-04-14T11:46:54.038Z,16.62
2023-04-14T11:49:55.690Z,16.68
2023-04-14T11:53:00.342Z,16.72
2023-04-14T11:56:02.808Z,16.76
2023-04-14T11:59:05.746Z,16.86
2023-04-14T12:02:15.474Z,16.99
2023-04-14T12:05:21.759Z,17.17
2023-04-14T12:08:24.044Z,17.25
2023-04-14T12:11:25.801Z,17.36
2023-04-14T12:14:27.500Z,17.56
2023-04-14T12:17:29.692Z,17.73
2023-04-14T12:20:43.119Z,17.81
2023-04-14T12:23:51.120Z,17.89
2023-04-14T12:26:52.708Z,17.93
2023-04-14T12:29:54.430Z,17.96
2023-04-14T12:32:56.481Z,18.01
2023-04-14T12:36:06.298Z,18.05
2023-04-14T12:39:09.016Z,18.10
2023-04-14T12:42:10.868Z,18.13
2023-04-14T12:45:13.112Z,18.13
2023-04-14T12:48:18.248Z,18.23
2023-04-14T12:51:20.846Z,18.40
2023-04-14T12:54:22.480Z,18.53
2023-04-14T12:57:24.031Z,18.57
2023-04-14T13:00:30.089Z,18.64
2023-04-14T13:03:39.489Z,18.79
2023-04-14T13:06:41.392Z,18.92
2023-04-14T13:09:43.668Z,18.97
2023-04-14T13:12:45.351Z,19.02
2023-04-14T13:16:14.202Z,19.00
2023-04-14T13:19:08.803Z,19.03
2023-04-14T13:22:10.434Z,19.07
2023-04-14T13:25:12.003Z,19.25
2023-04-14T13:28:13.706Z,19.43
2023-04-14T13:31:17.229Z,19.46
2023-04-14T13:34:19.033Z,19.48
2023-04-14T13:37:21.925Z,19.48
2023-04-14T13:40:23.599Z,19.41
2023-04-14T13:43:25.263Z,19.45
2023-04-14T13:46:26.903Z,19.55
2023-04-14T13:49:28.612Z,19.61
2023-04-14T13:52:30.630Z,19.62
2023-04-14T13:55:32.677Z,19.66
2023-04-14T13:58:34.261Z,19.73
2023-04-14T14:01:36.009Z,19.71
2023-04-14T14:04:37.849Z,19.71
2023-04-14T14:07:39.847Z,19.76
2023-04-14T14:10:41.841Z,19.80
2023-04-14T14:13:43.421Z,19.89
2023-04-14T14:16:45.369Z,19.98
2023-04-14T14:19:46.963Z,20.18
2023-04-14T14:22:48.609Z,20.34
2023-04-14T14:25:50.289Z,20.51
2023-04-14T14:28:51.889Z,20.60
2023-04-14T14:31:53.479Z,20.59
2023-04-14T14:34:55.585Z,20.60
2023-04-14T14:37:58.900Z,20.63
2023-04-14T14:41:00.958Z,20.70
2023-04-14T14:44:02.841Z,20.64
2023-04-14T14:47:05.467Z,20.54
2023-04-14T14:50:08.725Z,20.68
2023-04-14T14:53:10.750Z,20.88
2023-04-14T14:56:12.346Z,20.95
2023-04-14T14:59:14.061Z,21.15
2023-04-14T15:02:15.696Z,21.36
2023-04-14T15:05:17.495Z,21.60
2023-04-14T15:08:19.676Z,21.82
2023-04-14T15:11:21.549Z,22.11
2023-04-14T15:14:24.216Z,22.32
2023-04-14T15:17:25.856Z,22.40
2023-04-14T15:20:27.540Z,22.38
2023-04-14T15:23:29.192Z,22.63
2023-04-14T15:26:30.773Z,22.75
2023-04-14T15:29:32.486Z,22.79
2023-04-14T15:32:34.606Z,22.71
2023-04-14T15:35:38.804Z,22.58
2023-04-14T15:38:41.441Z,22.28
2023-04-14T15:41:43.413Z,22.03
2023-04-14T15:44:45.347Z,21.91
2023-04-14T15:47:48.417Z,21.85
2023-04-14T15:50:50.135Z,21.82
2023-04-14T15:53:52.184Z,21.73
2023-04-14T15:56:53.838Z,21.63
2023-04-14T15:59:55.471Z,21.51
2023-04-14T16:02:57.213Z,21.36
2023-04-14T16:06:03.377Z,21.21
2023-04-14T16:09:05.323Z,21.03
2023-04-14T16:12:07.109Z,20.85
2023-04-14T16:15:14.770Z,20.62
2023-04-14T16:18:16.610Z,20.37
2023-04-14T16:21:18.328Z,20.00
2023-04-14T16:24:19.839Z,19.59
2023-04-14T16:27:21.472Z,19.13
2023-04-14T16:30:23.123Z,18.68
2023-04-14T16:33:24.916Z,18.23
2023-04-14T16:36:27.229Z,17.84
2023-04-14T16:39:30.462Z,17.47
2023-04-14T16:42:32.669Z,17.19
2023-04-14T16:45:34.892Z,16.97
2023-04-14T16:48:37.201Z,16.75
2023-04-14T16:51:39.144Z,16.56
2023-04-14T16:54:41.347Z,16.44
2023-04-14T16:57:42.996Z,16.36
2023-04-14T17:00:44.503Z,16.33
2023-04-14T17:03:46.430Z,16.28
2023-04-14T17:06:48.287Z,16.27
2023-04-14T17:09:49.908Z,16.33
2023-04-14T17:12:52.575Z,16.44
2023-04-14T17:16:05.724Z,16.25
2023-04-14T17:19:10.742Z,15.97
2023-04-14T17:22:12.569Z,15.81
2023-04-14T17:25:15.085Z,15.72
2023-04-14T17:28:17.184Z,15.68
2023-04-14T17:31:19.724Z,15.61
2023-04-14T17:34:21.446Z,15.55
2023-04-14T17:37:23.508Z,15.56
2023-04-14T17:40:25.498Z,15.63
2023-04-14T17:43:27.438Z,15.64
2023-04-14T17:46:35.242Z,15.70
2023-04-14T17:49:36.958Z,15.74
2023-04-14T17:52:51.280Z,15.66
2023-04-14T17:55:53.022Z,15.52
2023-04-14T17:58:54.668Z,15.38
2023-04-14T18:01:56.327Z,15.24
2023-04-14T18:04:58.246Z,15.11
2023-04-14T18:08:00.091Z,14.97
2023-04-14T18:11:01.731Z,14.90
2023-04-14T18:14:03.992Z,14.83
2023-04-14T18:17:06.458Z,14.75
2023-04-14T18:20:10.969Z,14.71
2023-04-14T18:23:12.867Z,14.65
2023-04-14T18:29:23.752Z,14.54
2023-04-14T18:32:25.704Z,14.47
2023-04-14T18:35:33.919Z,14.39
2023-04-14T18:38:37.416Z,14.30
2023-04-14T18:41:40.170Z,14.26
2023-04-14T18:44:42.109Z,14.21
2023-04-14T18:47:46.077Z,14.11
2023-04-14T18:50:48.013Z,13.94
2023-04-14T18:53:49.869Z,13.82
2023-04-14T18:56:51.820Z,13.73
2023-04-14T18:59:53.482Z,13.68
2023-04-14T19:02:58.598Z,13.66
2023-04-14T19:06:00.296Z,13.63
2023-04-14T19:09:04.278Z,13.56
2023-04-14T19:12:09.343Z,13.48
2023-04-14T19:15:17.829Z,13.40
2023-04-14T19:18:20.409Z,13.33
2023-04-14T19:21:22.176Z,13.27
2023-04-14T19:24:24.361Z,13.21
2023-04-14T19:27:26.589Z,13.14
2023-04-14T19:30:29.160Z,13.08
2023-04-14T19:33:30.929Z,13.02
2023-04-14T19:36:34.272Z,12.96
2023-04-14T19:39:35.842Z,12.92
2023-04-14T19:42:37.506Z,12.86
2023-04-14T19:45:39.071Z,12.80
2023-04-14T19:48:40.681Z,12.74
2023-04-14T19:51:43.201Z,12.70
2023-04-14T19:54:45.791Z,12.66
2023-04-14T19:57:47.327Z,12.62
2023-04-14T20:00:51.587Z,12.58
2023-04-14T20:04:04.403Z,12.53
2023-04-14T20:07:10.884Z,12.49
2023-04-14T20:10:12.509Z,12.44
2023-04-14T20:13:16.024Z,12.41
2023-04-14T20:16:17.787Z,12.38
2023-04-14T20:19:19.366Z,12.35
2023-04-14T20:22:21.047Z,12.32
2023-04-14T20:25:22.992Z,12.30
2023-04-14T20:28:26.116Z,12.27
2023-04-14T20:31:28.228Z,12.25
2023-04-14T20:34:29.875Z,12.24
2023-04-14T20:37:32.151Z,12.24
2023-04-14T20:40:33.968Z,12.23
2023-04-14T20:43:35.888Z,12.24
2023-04-14T20:46:37.669Z,12.26
2023-04-14T20:49:39.395Z,12.28
2023-04-14T20:52:41.661Z,12.30
2023-04-14T20:55:43.489Z,12.30
2023-04-14T20:58:45.733Z,12.30
2023-04-14T21:01:48.502Z,12.27
2023-04-14T21:04:50.372Z,12.23
2023-04-14T21:07:51.955Z,12.21
2023-04-14T21:11:16.225Z,12.20
2023-04-14T21:15:30.429Z,12.17
2023-04-14T21:17:37.230Z,12.15
2023-04-14T21:20:39.019Z,12.10
2023-04-14T21:23:41.188Z,12.03
2023-04-14T21:26:42.867Z,11.93
2023-04-14T21:29:44.992Z,11.82
2023-04-14T21:32:46.658Z,11.76
2023-04-14T21:35:48.313Z,11.69
2023-04-14T21:38:49.992Z,11.62
2023-04-14T21:41:52.433Z,11.53
2023-04-14T21:44:54.118Z,11.45
2023-04-14T21:47:55.737Z,11.38
2023-04-14T21:50:57.712Z,11.26
2023-04-14T21:53:59.284Z,11.14
2023-04-14T21:57:00.957Z,11.06
2023-04-14T22:00:03.222Z,11.00
2023-04-14T22:03:05.033Z,10.93
2023-04-14T22:06:07.478Z,10.86
2023-04-14T22:09:09.054Z,10.78
2023-04-14T22:12:10.665Z,10.73
2023-04-14T22:15:12.344Z,10.68
2023-04-14T22:18:13.871Z,10.61
2023-04-14T22:21:15.759Z,10.54
2023-04-14T22:24:17.649Z,10.50
2023-04-14T22:27:19.282Z,10.48
2023-04-14T22:30:20.805Z,10.45
2023-04-14T22:33:22.359Z,10.41
2023-04-14T22:36:23.885Z,10.35
2023-04-14T22:39:25.514Z,10.30
2023-04-14T22:42:27.438Z,10.25
2023-04-14T22:45:29.027Z,10.22
2023-04-14T22:48:30.740Z,10.17
2023-04-14T22:51:32.412Z,10.12
2023-04-14T22:54:33.977Z,10.06
2023-04-14T22:57:35.595Z,9.97
2023-04-14T23:00:37.486Z,9.88
2023-04-14T23:03:39.285Z,9.81
2023-04-14T23:06:40.939Z,9.76
2023-04-14T23:09:42.581Z,9.71
2023-04-14T23:12:44.205Z,9.64
2023-04-14T23:15:46.408Z,9.52
2023-04-14T23:18:52.941Z,9.40
2023-04-14T23:21:54.615Z,9.28
2023-04-14T23:24:56.218Z,9.18
2023-04-14T23:27:58.264Z,9.09
2023-04-14T23:30:59.928Z,9.05
2023-04-14T23:34:01.604Z,9.05
2023-04-14T23:37:03.403Z,9.07
2023-04-14T23:40:06.217Z,9.08
2023-04-14T23:43:08.240Z,9.08
2023-04-14T23:46:09.941Z,9.09
2023-04-14T23:49:24.368Z,9.08
2023-04-14T23:52:35.968Z,9.08
2023-04-14T23:55:37.981Z,9.07
2023-04-14T23:58:39.677Z,9.06
